This is the latest recevied weather packets stored in our database for station/object OK3MS-5. If no packets are shown the sender has not sent any weather packets the latest 10 day(s).
| Time | Temp. | Humidity | Pressure | Rain* | Wind** | Luminosity | Snow |
|---|---|---|---|---|---|---|---|
| 1787418010 | 17.22° C | 69% | 1017.3 hPa | 0 mm | - | 39 W/m² | - |
| 1787417702 | 17.22° C | 70% | 1017.2 hPa | 0 mm | - | 37 W/m² | - |
| 1787417405 | 17.22° C | 70% | 1017.3 hPa | 0 mm | - | 30 W/m² | - |
| 1787417103 | 17.22° C | 71% | 1017.3 hPa | 0 mm | - | 40 W/m² | - |
| 1787416803 | 17.22° C | 70% | 1017.1 hPa | 0 mm | - | 51 W/m² | - |
| 1787416503 | 17.22° C | 68% | 1017.1 hPa | 0 mm | - | 51 W/m² | - |
| 1787416204 | 17.78° C | 68% | 1017 hPa | 0 mm | - | 57 W/m² | - |
| 1787415904 | 17.78° C | 68% | 1017 hPa | 0 mm | - | 60 W/m² | - |
| 1787415602 | 17.78° C | 67% | 1017 hPa | 0 mm | - | 51 W/m² | - |
| 1787415303 | 17.78° C | 66% | 1016.8 hPa | 0 mm | - | 50 W/m² | - |
| 1787415004 | 18.89° C | 64% | 1016.5 hPa | 0 mm | - | 54 W/m² | - |
| 1787414704 | 18.89° C | 64% | 1016.4 hPa | 0 mm | - | 178 W/m² | - |
| 1787414404 | 20° C | 60% | 1016.3 hPa | 0 mm | - | 212 W/m² | - |
| 1787414103 | 19.44° C | 58% | 1016.3 hPa | 0 mm | - | 208 W/m² | - |
| 1787413802 | 18.89° C | 59% | 1016.3 hPa | 0 mm | - | 207 W/m² | - |
| 1787413504 | 18.33° C | 61% | 1016.3 hPa | 0 mm | - | 263 W/m² | - |
| 1787413203 | 18.33° C | 63% | 1016.3 hPa | 0 mm | - | 111 W/m² | - |
| 1787412903 | 18.33° C | 62% | 1016.3 hPa | 0 mm | - | 87 W/m² | - |
| 1787412603 | 18.89° C | 60% | 1016.2 hPa | 0 mm | - | 91 W/m² | - |
| 1787412304 | 19.44° C | 62% | 1016.1 hPa | 0 mm | - | 92 W/m² | - |
| 1787412003 | 19.44° C | 62% | 1016.1 hPa | 0 mm | - | 340 W/m² | - |
| 1787411702 | 19.44° C | 61% | 1016 hPa | 0 mm | - | 138 W/m² | - |
| 1787411405 | 19.44° C | 62% | 1016 hPa | 0 mm | - | 346 W/m² | - |
| 1787411104 | 19.44° C | 60% | 1016 hPa | 0 mm | - | 334 W/m² | - |
| 1787410803 | 20° C | 61% | 1015.8 hPa | 0 mm | - | 369 W/m² | - |
* Rain latest hour (hover to see other rain measurements)
** Current wind speed in m/s (hover to see current wind gust speed)